createdAt,value
2023-04-30T00:02:56.190Z,6.59
2023-04-30T00:05:58.103Z,6.55
2023-04-30T00:09:00.024Z,6.57
2023-04-30T00:12:01.929Z,6.49
2023-04-30T00:15:04.566Z,6.49
2023-04-30T00:18:07.263Z,6.42
2023-04-30T00:21:09.423Z,6.46
2023-04-30T00:24:11.337Z,6.46
2023-04-30T00:27:13.237Z,6.44
2023-04-30T00:30:15.437Z,6.48
2023-04-30T00:33:17.300Z,6.43
2023-04-30T00:36:19.464Z,6.37
2023-04-30T00:39:21.378Z,6.35
2023-04-30T00:42:24.231Z,6.35
2023-04-30T00:45:26.731Z,6.37
2023-04-30T00:48:29.013Z,6.33
2023-04-30T00:51:35.368Z,6.34
2023-04-30T00:54:37.447Z,6.28
2023-04-30T00:57:41.070Z,6.29
2023-04-30T01:00:47.296Z,6.25
2023-04-30T01:03:49.463Z,6.23
2023-04-30T01:06:52.155Z,6.24
2023-04-30T01:09:54.884Z,6.24
2023-04-30T01:13:01.954Z,6.21
2023-04-30T01:16:10.509Z,6.23
2023-04-30T01:19:28.485Z,6.18
2023-04-30T01:22:55.285Z,6.13
2023-04-30T01:26:28.839Z,6.05
2023-04-30T01:29:32.811Z,6.06
2023-04-30T01:32:34.778Z,6.03
2023-04-30T01:35:54.803Z,6.09
2023-04-30T01:39:11.572Z,6.06
2023-04-30T01:42:19.668Z,6.12
2023-04-30T01:45:27.252Z,6.11
2023-04-30T01:48:41.660Z,6.05
2023-04-30T01:51:48.384Z,5.97
2023-04-30T01:54:59.374Z,5.89
2023-04-30T01:58:03.541Z,5.95
2023-04-30T02:01:05.593Z,5.96
2023-04-30T02:04:07.585Z,5.80
2023-04-30T02:07:09.547Z,5.77
2023-04-30T02:10:12.527Z,5.78
2023-04-30T02:13:14.367Z,5.72
2023-04-30T02:16:16.466Z,5.70
2023-04-30T02:19:18.403Z,5.61
2023-04-30T02:22:20.442Z,5.72
2023-04-30T02:25:22.442Z,5.68
2023-04-30T02:28:24.405Z,5.71
2023-04-30T02:31:26.345Z,5.70
2023-04-30T02:34:28.309Z,5.77
2023-04-30T02:37:30.230Z,5.69
2023-04-30T02:40:32.131Z,5.68
2023-04-30T02:43:34.063Z,5.65
2023-04-30T02:46:36.015Z,5.67
2023-04-30T02:49:38.002Z,5.75
2023-04-30T02:52:39.941Z,5.74
2023-04-30T02:55:41.930Z,5.82
2023-04-30T02:58:44.408Z,5.82
2023-04-30T03:01:46.631Z,5.80
2023-04-30T03:04:48.518Z,5.76
2023-04-30T03:07:50.500Z,5.84
2023-04-30T03:10:52.474Z,5.82
2023-04-30T03:13:55.501Z,5.80
2023-04-30T03:16:57.403Z,5.79
2023-04-30T03:19:59.307Z,5.80
2023-04-30T03:23:01.155Z,5.80
2023-04-30T03:26:02.973Z,5.70
2023-04-30T03:29:04.904Z,5.66
2023-04-30T03:32:06.714Z,5.64
2023-04-30T03:35:08.899Z,5.58
2023-04-30T03:38:10.944Z,5.65
2023-04-30T03:41:12.906Z,5.71
2023-04-30T03:44:16.198Z,5.68
2023-04-30T03:47:18.400Z,5.66
2023-04-30T03:50:20.378Z,5.72
2023-04-30T03:53:22.328Z,5.72
2023-04-30T03:56:25.909Z,5.80
2023-04-30T03:59:28.303Z,5.78
2023-04-30T04:02:31.985Z,5.82
2023-04-30T04:05:33.973Z,5.74
2023-04-30T04:08:36.786Z,5.67
2023-04-30T04:11:38.722Z,5.69
2023-04-30T04:14:40.595Z,5.69
2023-04-30T04:17:42.611Z,5.63
2023-04-30T04:20:45.086Z,5.65
2023-04-30T04:23:46.970Z,5.67
2023-04-30T04:26:48.957Z,5.63
2023-04-30T04:29:51.299Z,5.67
2023-04-30T04:32:54.172Z,5.68
2023-04-30T04:35:57.960Z,5.68
2023-04-30T04:39:04.019Z,5.67
2023-04-30T04:42:05.973Z,5.73
2023-04-30T04:45:08.550Z,5.70
2023-04-30T04:48:10.492Z,5.70
2023-04-30T04:51:12.778Z,5.78
2023-04-30T04:54:14.811Z,5.76
2023-04-30T04:57:16.760Z,5.79
2023-04-30T05:00:19.214Z,5.84
2023-04-30T05:03:21.469Z,5.83
2023-04-30T05:06:25.087Z,5.90
2023-04-30T05:09:27.861Z,5.89
2023-04-30T05:12:29.711Z,5.99
2023-04-30T05:15:31.677Z,5.95
2023-04-30T05:18:33.580Z,5.94
2023-04-30T05:21:36.506Z,5.89
2023-04-30T05:24:38.221Z,5.85
2023-04-30T05:27:40.090Z,5.89
2023-04-30T05:30:41.915Z,5.97
2023-04-30T05:33:43.959Z,5.97
2023-04-30T05:36:45.915Z,6.03
2023-04-30T05:39:49.095Z,6.10
2023-04-30T05:42:51.059Z,6.08
2023-04-30T05:45:52.913Z,6.21
2023-04-30T05:48:54.833Z,6.28
2023-04-30T05:51:56.774Z,6.28
2023-04-30T05:54:58.744Z,6.33
2023-04-30T05:58:00.815Z,6.33
2023-04-30T06:01:02.851Z,6.42
2023-04-30T06:04:05.252Z,6.47
2023-04-30T06:07:07.218Z,6.53
2023-04-30T06:10:09.867Z,6.59
2023-04-30T06:13:11.754Z,6.60
2023-04-30T06:16:13.648Z,6.64
2023-04-30T06:19:16.213Z,6.65
2023-04-30T06:22:18.166Z,6.61
2023-04-30T06:25:21.064Z,6.61
2023-04-30T06:28:22.949Z,6.56
2023-04-30T06:31:25.110Z,6.56
2023-04-30T06:34:27.124Z,6.57
2023-04-30T06:37:29.052Z,6.63
2023-04-30T06:40:31.000Z,6.74
2023-04-30T06:43:32.825Z,6.75
2023-04-30T06:46:34.973Z,6.70
2023-04-30T06:49:36.976Z,6.69
2023-04-30T06:52:39.329Z,6.75
2023-04-30T06:55:41.975Z,6.80
2023-04-30T06:58:43.905Z,6.83
2023-04-30T07:01:45.752Z,6.81
2023-04-30T07:04:47.664Z,6.79
2023-04-30T07:07:49.573Z,6.83
2023-04-30T07:10:51.486Z,6.85
2023-04-30T07:13:53.806Z,6.91
2023-04-30T07:16:56.416Z,7.00
2023-04-30T07:19:58.470Z,7.06
2023-04-30T07:23:00.306Z,7.09
2023-04-30T07:26:02.202Z,7.11
2023-04-30T07:29:04.863Z,7.00
2023-04-30T07:32:06.786Z,7.08
2023-04-30T07:35:09.108Z,7.12
2023-04-30T07:38:11.177Z,7.16
2023-04-30T07:41:13.269Z,7.16
2023-04-30T07:44:15.330Z,7.16
2023-04-30T07:47:17.715Z,7.18
2023-04-30T07:50:20.049Z,7.18
2023-04-30T07:53:21.895Z,7.23
2023-04-30T07:56:23.706Z,7.29
2023-04-30T07:59:25.660Z,7.29
2023-04-30T08:02:27.841Z,7.30
2023-04-30T08:05:29.971Z,7.32
2023-04-30T08:08:31.840Z,7.42
2023-04-30T08:11:33.766Z,7.41
2023-04-30T08:14:35.831Z,7.31
2023-04-30T08:17:37.848Z,7.31
2023-04-30T08:20:39.876Z,7.33
2023-04-30T08:23:41.914Z,7.29
2023-04-30T08:26:43.805Z,7.39
2023-04-30T08:29:45.827Z,7.44
2023-04-30T08:32:49.052Z,7.47
2023-04-30T08:35:51.166Z,7.53
2023-04-30T08:38:53.155Z,7.58
2023-04-30T08:42:02.354Z,7.59
2023-04-30T08:45:05.209Z,7.69
2023-04-30T08:48:11.604Z,7.79
2023-04-30T08:51:13.532Z,7.84
2023-04-30T08:54:17.777Z,7.85
2023-04-30T08:57:19.659Z,7.89
2023-04-30T09:00:21.790Z,7.91
2023-04-30T09:03:23.807Z,7.98
2023-04-30T09:06:27.394Z,8.10
2023-04-30T09:09:31.093Z,8.11
2023-04-30T09:12:33.050Z,8.17
2023-04-30T09:15:36.907Z,8.25
2023-04-30T09:18:42.121Z,8.29
2023-04-30T09:21:44.050Z,8.29
2023-04-30T09:24:48.307Z,8.26
2023-04-30T09:28:07.561Z,8.42
2023-04-30T09:31:21.104Z,8.48
2023-04-30T09:34:35.467Z,8.47
2023-04-30T09:37:38.506Z,8.47
2023-04-30T09:40:42.633Z,8.50
2023-04-30T09:43:47.307Z,8.55
2023-04-30T09:46:51.124Z,8.59
2023-04-30T09:49:53.917Z,8.59
2023-04-30T09:53:07.067Z,8.56
2023-04-30T09:56:11.834Z,8.57
2023-04-30T09:59:15.041Z,8.51
2023-04-30T10:02:17.445Z,8.47
2023-04-30T10:05:19.717Z,8.48
2023-04-30T10:08:27.070Z,8.52
2023-04-30T10:11:35.881Z,8.55
2023-04-30T10:14:38.022Z,8.55
2023-04-30T10:17:41.692Z,8.57
2023-04-30T10:20:48.937Z,8.62
2023-04-30T10:23:51.980Z,8.63
2023-04-30T10:26:55.115Z,8.68
2023-04-30T10:29:58.111Z,8.75
2023-04-30T10:33:16.877Z,8.80
2023-04-30T10:36:33.891Z,8.82
2023-04-30T10:39:37.845Z,8.77
2023-04-30T10:42:45.968Z,8.85
2023-04-30T10:45:48.759Z,8.92
2023-04-30T10:48:54.955Z,9.03
2023-04-30T10:52:00.772Z,9.03
2023-04-30T10:55:07.555Z,9.10
2023-04-30T10:58:27.418Z,9.07
2023-04-30T11:01:29.888Z,9.12
2023-04-30T11:04:31.803Z,9.13
2023-04-30T11:07:34.584Z,9.11
2023-04-30T11:10:36.571Z,9.18
2023-04-30T11:13:45.337Z,9.23
2023-04-30T11:16:51.323Z,9.27
2023-04-30T11:19:54.348Z,9.30
2023-04-30T11:23:15.707Z,9.30
2023-04-30T11:26:24.820Z,9.24
2023-04-30T11:29:27.099Z,9.23
2023-04-30T11:32:37.412Z,9.31
2023-04-30T11:35:39.759Z,9.34
2023-04-30T11:38:41.869Z,9.32
2023-04-30T11:41:43.765Z,9.25
2023-04-30T11:44:46.284Z,9.25
2023-04-30T11:47:50.575Z,9.23
2023-04-30T11:50:52.547Z,9.22
2023-04-30T11:53:54.642Z,9.20
2023-04-30T11:57:02.344Z,9.14
2023-04-30T12:00:21.312Z,9.15
2023-04-30T12:03:23.320Z,9.12
2023-04-30T12:06:27.821Z,9.04
2023-04-30T12:09:30.217Z,8.95
2023-04-30T12:12:32.621Z,9.01
2023-04-30T12:15:34.494Z,9.05
2023-04-30T12:18:36.438Z,8.99
2023-04-30T12:21:40.287Z,9.02
2023-04-30T12:24:42.221Z,9.03
2023-04-30T12:27:53.550Z,9.02
2023-04-30T12:30:55.810Z,8.99
2023-04-30T12:33:57.744Z,9.01
2023-04-30T12:37:00.179Z,8.96
2023-04-30T12:40:02.678Z,9.04
2023-04-30T12:43:07.152Z,9.09
2023-04-30T12:46:09.228Z,9.10
2023-04-30T12:49:11.476Z,9.07
2023-04-30T12:52:14.218Z,9.05
2023-04-30T12:55:19.672Z,9.04
2023-04-30T12:58:22.421Z,9.01
2023-04-30T13:01:25.479Z,9.03
2023-04-30T13:04:27.895Z,8.90
2023-04-30T13:07:38.711Z,8.90
2023-04-30T13:10:40.790Z,8.89
2023-04-30T13:13:42.691Z,8.85
2023-04-30T13:16:44.628Z,8.86
2023-04-30T13:19:46.743Z,8.80
2023-04-30T13:22:48.860Z,8.88
2023-04-30T13:25:50.694Z,8.96
2023-04-30T13:28:52.651Z,8.96
2023-04-30T13:31:54.591Z,8.96
2023-04-30T13:34:56.862Z,8.93
2023-04-30T13:38:02.450Z,9.00
2023-04-30T13:41:04.503Z,8.89
2023-04-30T13:44:06.554Z,8.93
2023-04-30T13:47:10.341Z,9.02
2023-04-30T13:50:12.405Z,9.06
2023-04-30T13:53:14.486Z,9.06
2023-04-30T13:56:16.429Z,9.04
2023-04-30T13:59:19.257Z,8.99
2023-04-30T14:02:21.294Z,8.93
2023-04-30T14:05:23.212Z,8.94
2023-04-30T14:08:25.189Z,8.92
2023-04-30T14:11:27.582Z,8.98
2023-04-30T14:14:29.762Z,8.99
2023-04-30T14:17:32.171Z,9.02
2023-04-30T14:20:34.059Z,9.00
2023-04-30T14:23:36.382Z,8.91
2023-04-30T14:26:39.182Z,8.86
2023-04-30T14:29:41.193Z,8.79
2023-04-30T14:32:43.033Z,8.83
2023-04-30T14:35:45.662Z,8.85
2023-04-30T14:38:47.748Z,8.74
2023-04-30T14:41:51.140Z,8.76
2023-04-30T14:44:53.641Z,8.78
2023-04-30T14:47:55.588Z,8.85
2023-04-30T14:50:57.500Z,8.87
2023-04-30T14:53:59.498Z,8.81
2023-04-30T14:57:03.463Z,8.78
2023-04-30T15:00:06.901Z,8.71
2023-04-30T15:03:09.017Z,8.74
2023-04-30T15:06:11.296Z,8.67
2023-04-30T15:09:13.917Z,8.59
2023-04-30T15:12:15.794Z,8.59
2023-04-30T15:15:18.857Z,8.53
2023-04-30T15:18:21.013Z,8.48
2023-04-30T15:21:22.986Z,8.48
2023-04-30T15:24:25.126Z,8.41
2023-04-30T15:27:31.799Z,8.39
2023-04-30T15:30:34.328Z,8.40
2023-04-30T15:33:42.136Z,8.38
2023-04-30T15:36:44.160Z,8.38
2023-04-30T15:39:47.799Z,8.36
2023-04-30T15:42:51.024Z,8.38
2023-04-30T15:45:53.168Z,8.38
2023-04-30T15:48:55.126Z,8.39
2023-04-30T15:51:57.067Z,8.32
2023-04-30T15:55:00.563Z,8.31
2023-04-30T15:58:02.448Z,8.30
2023-04-30T16:01:04.583Z,8.31
2023-04-30T16:04:07.029Z,8.31
2023-04-30T16:07:09.315Z,8.35
2023-04-30T16:10:11.838Z,8.26
2023-04-30T16:13:13.964Z,8.26
2023-04-30T16:16:16.781Z,8.22
2023-04-30T16:19:18.814Z,8.21
2023-04-30T16:22:21.720Z,8.17
2023-04-30T16:25:23.553Z,8.14
2023-04-30T16:28:28.392Z,8.16
2023-04-30T16:31:30.861Z,8.14
2023-04-30T16:34:32.750Z,8.10
2023-04-30T16:37:35.090Z,8.13
2023-04-30T16:40:37.400Z,8.14
2023-04-30T16:43:39.408Z,8.14
2023-04-30T16:46:41.965Z,8.13
2023-04-30T16:49:44.688Z,8.10
2023-04-30T16:52:47.270Z,8.12
2023-04-30T16:55:51.801Z,8.11
2023-04-30T16:58:54.887Z,8.11
2023-04-30T17:01:58.712Z,8.06
2023-04-30T17:05:00.855Z,8.04
2023-04-30T17:08:03.291Z,8.04
2023-04-30T17:11:06.429Z,8.05
2023-04-30T17:14:08.749Z,8.05
2023-04-30T17:17:10.765Z,8.05
2023-04-30T17:20:12.678Z,8.02
2023-04-30T17:23:14.601Z,8.02
2023-04-30T17:26:18.372Z,7.98
2023-04-30T17:29:21.141Z,7.95
2023-04-30T17:32:23.383Z,7.94
2023-04-30T17:35:25.673Z,7.90
2023-04-30T17:38:28.354Z,7.91
2023-04-30T17:41:30.484Z,7.90
2023-04-30T17:44:33.732Z,7.87
2023-04-30T17:47:35.820Z,7.88
2023-04-30T17:50:37.838Z,7.90
2023-04-30T17:53:40.643Z,7.85
2023-04-30T17:56:42.764Z,7.83
2023-04-30T17:59:44.735Z,7.81
2023-04-30T18:02:46.972Z,7.79
2023-04-30T18:05:48.901Z,7.80
2023-04-30T18:08:51.025Z,7.74
2023-04-30T18:11:54.033Z,7.78
2023-04-30T18:14:55.983Z,7.78
2023-04-30T18:17:59.456Z,7.75
2023-04-30T18:21:01.474Z,7.75
2023-04-30T18:24:03.515Z,7.74
2023-04-30T18:27:05.294Z,7.77
2023-04-30T18:30:09.536Z,7.74
2023-04-30T18:33:11.527Z,7.70
2023-04-30T18:36:13.515Z,7.73
2023-04-30T18:39:15.559Z,7.72
2023-04-30T18:42:18.478Z,7.70
2023-04-30T18:45:20.580Z,7.64
2023-04-30T18:48:25.520Z,7.65
2023-04-30T18:51:28.563Z,7.65
2023-04-30T18:54:30.515Z,7.65
2023-04-30T18:57:32.466Z,7.65
2023-04-30T19:00:34.456Z,7.65
2023-04-30T19:03:36.494Z,7.66
2023-04-30T19:06:38.604Z,7.65
2023-04-30T19:09:40.665Z,7.48
2023-04-30T19:12:44.032Z,7.54
2023-04-30T19:15:48.737Z,7.55
2023-04-30T19:18:51.656Z,7.54
2023-04-30T19:21:53.593Z,7.52
2023-04-30T19:24:55.776Z,7.53
2023-04-30T19:27:57.713Z,7.55
2023-04-30T19:30:59.735Z,7.43
2023-04-30T19:34:01.740Z,7.49
2023-04-30T19:37:03.806Z,7.48
2023-04-30T19:40:12.956Z,7.51
2023-04-30T19:43:14.929Z,7.49
2023-04-30T19:46:17.561Z,7.52
2023-04-30T19:49:19.700Z,7.49
2023-04-30T19:52:22.558Z,7.47
2023-04-30T19:55:25.716Z,7.43
2023-04-30T19:58:27.949Z,7.41
2023-04-30T20:01:29.954Z,7.46
2023-04-30T20:04:31.849Z,7.49
2023-04-30T20:07:33.828Z,7.49
2023-04-30T20:10:37.346Z,7.45
2023-04-30T20:13:39.225Z,7.49
2023-04-30T20:16:41.531Z,7.46
2023-04-30T20:19:43.620Z,7.44
2023-04-30T20:22:47.689Z,7.44
2023-04-30T20:25:50.313Z,7.48
2023-04-30T20:28:52.296Z,7.52
2023-04-30T20:31:54.474Z,7.50
2023-04-30T20:34:56.891Z,7.51
2023-04-30T20:37:58.939Z,7.50
2023-04-30T20:41:00.827Z,7.43
2023-04-30T20:44:02.649Z,7.48
2023-04-30T20:47:05.541Z,7.44
2023-04-30T20:50:10.535Z,7.42
2023-04-30T20:53:12.604Z,7.40
2023-04-30T20:56:14.598Z,7.37
2023-04-30T20:59:16.551Z,7.39
2023-04-30T21:02:18.728Z,7.40
2023-04-30T21:05:20.616Z,7.42
2023-04-30T21:08:22.530Z,7.46
2023-04-30T21:11:28.946Z,7.47
2023-04-30T21:14:31.687Z,7.43
2023-04-30T21:17:33.693Z,7.43
2023-04-30T21:20:35.619Z,7.43
2023-04-30T21:23:37.575Z,7.43
2023-04-30T21:26:39.370Z,7.32
2023-04-30T21:29:44.464Z,7.27
2023-04-30T21:32:47.205Z,7.26
2023-04-30T21:35:49.268Z,7.29
2023-04-30T21:38:51.382Z,7.27
2023-04-30T21:41:53.688Z,7.28
2023-04-30T21:44:55.550Z,7.29
2023-04-30T21:47:57.587Z,7.30
2023-04-30T21:50:59.671Z,7.32
2023-04-30T21:54:01.533Z,7.33
2023-04-30T21:57:03.844Z,7.35
2023-04-30T22:00:06.773Z,7.35
2023-04-30T22:03:10.351Z,7.34
2023-04-30T22:06:12.264Z,7.37
2023-04-30T22:09:14.555Z,7.34
2023-04-30T22:12:16.485Z,7.39
2023-04-30T22:15:18.464Z,7.37
2023-04-30T22:18:21.349Z,7.37
2023-04-30T22:21:23.236Z,7.35
2023-04-30T22:24:25.534Z,7.37
2023-04-30T22:27:27.572Z,7.34
2023-04-30T22:30:29.513Z,7.28
2023-04-30T22:33:36.284Z,7.33
2023-04-30T22:36:38.077Z,7.37
2023-04-30T22:39:40.005Z,7.30
2023-04-30T22:42:42.763Z,7.27
2023-04-30T22:45:44.754Z,7.20
2023-04-30T22:48:46.784Z,7.24
2023-04-30T22:51:49.014Z,7.30
2023-04-30T22:54:50.971Z,7.25
2023-04-30T22:57:53.123Z,7.28
2023-04-30T23:00:55.096Z,7.09
2023-04-30T23:03:57.192Z,7.12
2023-04-30T23:06:59.115Z,7.12
2023-04-30T23:10:01.023Z,7.16
2023-04-30T23:13:02.965Z,7.02
2023-04-30T23:16:05.846Z,7.18
2023-04-30T23:19:07.718Z,7.15
2023-04-30T23:22:10.431Z,7.12
2023-04-30T23:25:12.713Z,7.12
2023-04-30T23:28:14.552Z,7.08
2023-04-30T23:31:18.032Z,7.03
2023-04-30T23:34:19.904Z,7.11
2023-04-30T23:37:21.794Z,7.12
2023-04-30T23:40:23.731Z,7.06
2023-04-30T23:43:25.679Z,7.08
2023-04-30T23:46:27.661Z,7.12
2023-04-30T23:49:29.680Z,7.10
2023-04-30T23:52:32.019Z,7.10
2023-04-30T23:55:35.071Z,6.99
2023-04-30T23:58:36.945Z,7.06
